sensor_id;sensor_type;location;lat;lon;timestamp;pressure;altitude;pressure_sealevel;temperature;humidity
15487;BME280;7845;53.698;10.078;2024-02-15T00:02:02;101125.16;;;12.03;92.31
15487;BME280;7845;53.698;10.078;2024-02-15T00:04:28;101132.84;;;12.06;92.46
15487;BME280;7845;53.698;10.078;2024-02-15T00:06:54;101123.28;;;12.05;93.24
15487;BME280;7845;53.698;10.078;2024-02-15T00:09:20;101128.31;;;12.08;93.10
15487;BME280;7845;53.698;10.078;2024-02-15T00:11:46;101121.28;;;12.09;92.53
15487;BME280;7845;53.698;10.078;2024-02-15T00:14:12;101128.81;;;12.13;93.29
15487;BME280;7845;53.698;10.078;2024-02-15T00:16:37;101132.19;;;12.15;93.26
15487;BME280;7845;53.698;10.078;2024-02-15T00:19:03;101128.50;;;12.18;92.84
15487;BME280;7845;53.698;10.078;2024-02-15T00:21:28;101130.19;;;12.19;92.40
15487;BME280;7845;53.698;10.078;2024-02-15T00:23:54;101133.03;;;12.16;92.44
15487;BME280;7845;53.698;10.078;2024-02-15T00:26:21;101132.06;;;12.17;92.05
15487;BME280;7845;53.698;10.078;2024-02-15T00:28:46;101125.88;;;12.18;91.76
15487;BME280;7845;53.698;10.078;2024-02-15T00:31:12;101124.19;;;12.17;92.88
15487;BME280;7845;53.698;10.078;2024-02-15T00:33:37;101111.56;;;12.09;92.83
15487;BME280;7845;53.698;10.078;2024-02-15T00:36:04;101122.53;;;12.16;92.63
15487;BME280;7845;53.698;10.078;2024-02-15T00:38:31;101122.28;;;12.19;92.63
15487;BME280;7845;53.698;10.078;2024-02-15T00:40:56;101125.97;;;12.16;92.09
15487;BME280;7845;53.698;10.078;2024-02-15T00:43:21;101132.06;;;12.17;92.88
15487;BME280;7845;53.698;10.078;2024-02-15T00:45:47;101122.38;;;12.17;92.53
15487;BME280;7845;53.698;10.078;2024-02-15T00:48:12;101124.94;;;12.19;92.42
15487;BME280;7845;53.698;10.078;2024-02-15T00:50:37;101127.66;;;12.17;92.46
15487;BME280;7845;53.698;10.078;2024-02-15T00:53:03;101125.03;;;12.17;92.59
15487;BME280;7845;53.698;10.078;2024-02-15T00:55:29;101131.97;;;12.18;92.64
15487;BME280;7845;53.698;10.078;2024-02-15T00:57:54;101125.16;;;12.16;92.32
15487;BME280;7845;53.698;10.078;2024-02-15T01:00:19;101128.50;;;12.18;92.26
15487;BME280;7845;53.698;10.078;2024-02-15T01:02:45;101130.06;;;12.20;93.30
15487;BME280;7845;53.698;10.078;2024-02-15T01:05:11;101130.28;;;12.17;92.92
15487;BME280;7845;53.698;10.078;2024-02-15T01:07:36;101136.84;;;12.12;93.31
15487;BME280;7845;53.698;10.078;2024-02-15T01:10:01;101140.09;;;12.15;92.99
15487;BME280;7845;53.698;10.078;2024-02-15T01:12:28;101141.66;;;12.18;92.66
15487;BME280;7845;53.698;10.078;2024-02-15T01:14:53;101141.75;;;12.16;92.48
15487;BME280;7845;53.698;10.078;2024-02-15T01:17:18;101139.47;;;12.12;93.11
15487;BME280;7845;53.698;10.078;2024-02-15T01:19:44;101134.09;;;12.13;93.69
15487;BME280;7845;53.698;10.078;2024-02-15T01:22:10;101135.78;;;12.14;93.60
15487;BME280;7845;53.698;10.078;2024-02-15T01:24:35;101136.50;;;12.16;92.90
15487;BME280;7845;53.698;10.078;2024-02-15T01:27:00;101134.59;;;12.18;93.54
15487;BME280;7845;53.698;10.078;2024-02-15T01:29:26;101140.38;;;12.23;92.80
15487;BME280;7845;53.698;10.078;2024-02-15T01:31:52;101139.31;;;12.26;93.05
15487;BME280;7845;53.698;10.078;2024-02-15T01:34:17;101143.63;;;12.27;92.66
15487;BME280;7845;53.698;10.078;2024-02-15T01:36:42;101131.28;;;12.27;93.06
15487;BME280;7845;53.698;10.078;2024-02-15T01:39:08;101126.16;;;12.26;92.36
15487;BME280;7845;53.698;10.078;2024-02-15T01:41:33;101140.78;;;12.30;92.58
15487;BME280;7845;53.698;10.078;2024-02-15T01:43:58;101135.63;;;12.28;92.71
15487;BME280;7845;53.698;10.078;2024-02-15T01:46:24;101112.94;;;12.15;92.49
15487;BME280;7845;53.698;10.078;2024-02-15T01:48:50;101134.69;;;12.29;92.66
15487;BME280;7845;53.698;10.078;2024-02-15T01:51:16;101138.03;;;12.31;93.05
15487;BME280;7845;53.698;10.078;2024-02-15T01:53:42;101135.28;;;12.33;92.91
15487;BME280;7845;53.698;10.078;2024-02-15T01:56:08;101136.25;;;12.32;92.56
15487;BME280;7845;53.698;10.078;2024-02-15T01:58:33;101133.69;;;12.30;92.46
15487;BME280;7845;53.698;10.078;2024-02-15T02:01:00;101135.63;;;12.28;92.53
15487;BME280;7845;53.698;10.078;2024-02-15T02:03:26;101133.00;;;12.28;93.05
15487;BME280;7845;53.698;10.078;2024-02-15T02:05:52;101133.84;;;12.29;92.35
15487;BME280;7845;53.698;10.078;2024-02-15T02:08:18;101134.56;;;12.31;92.78
15487;BME280;7845;53.698;10.078;2024-02-15T02:10:43;101137.09;;;12.32;92.76
15487;BME280;7845;53.698;10.078;2024-02-15T02:13:10;101142.44;;;12.31;92.62
15487;BME280;7845;53.698;10.078;2024-02-15T02:15:36;101088.34;;;12.03;92.36
15487;BME280;7845;53.698;10.078;2024-02-15T02:18:03;101131.81;;;12.32;92.25
15487;BME280;7845;53.698;10.078;2024-02-15T02:20:34;101129.06;;;12.34;92.60
15487;BME280;7845;53.698;10.078;2024-02-15T02:23:16;101128.88;;;12.37;92.11
15487;BME280;7845;53.698;10.078;2024-02-15T02:25:44;101127.28;;;12.34;92.37
15487;BME280;7845;53.698;10.078;2024-02-15T02:28:11;101128.88;;;12.37;92.88
15487;BME280;7845;53.698;10.078;2024-02-15T02:30:37;101125.25;;;12.38;92.15
15487;BME280;7845;53.698;10.078;2024-02-15T02:33:10;101131.25;;;12.40;91.97
15487;BME280;7845;53.698;10.078;2024-02-15T02:35:35;101137.47;;;12.39;92.76
15487;BME280;7845;53.698;10.078;2024-02-15T02:38:02;101135.06;;;12.36;92.50
15487;BME280;7845;53.698;10.078;2024-02-15T02:40:27;101131.91;;;12.31;92.84
15487;BME280;7845;53.698;10.078;2024-02-15T02:42:55;101145.47;;;12.37;92.99
15487;BME280;7845;53.698;10.078;2024-02-15T02:45:26;101071.22;;;11.97;92.73
15487;BME280;7845;53.698;10.078;2024-02-15T02:47:52;101139.50;;;12.35;92.46
15487;BME280;7845;53.698;10.078;2024-02-15T02:50:18;101136.84;;;12.35;92.07
15487;BME280;7845;53.698;10.078;2024-02-15T02:52:44;101142.03;;;12.37;92.77
15487;BME280;7845;53.698;10.078;2024-02-15T02:55:10;101133.38;;;12.35;92.44
15487;BME280;7845;53.698;10.078;2024-02-15T02:57:36;101144.75;;;12.35;92.85
15487;BME280;7845;53.698;10.078;2024-02-15T03:00:07;101138.53;;;12.36;92.94
15487;BME280;7845;53.698;10.078;2024-02-15T03:02:46;101073.53;;;12.02;92.59
15487;BME280;7845;53.698;10.078;2024-02-15T03:05:11;101076.88;;;12.04;92.43
15487;BME280;7845;53.698;10.078;2024-02-15T03:07:37;101132.31;;;12.37;93.25
15487;BME280;7845;53.698;10.078;2024-02-15T03:10:06;101133.16;;;12.38;92.50
15487;BME280;7845;53.698;10.078;2024-02-15T03:12:33;101085.78;;;12.14;92.38
15487;BME280;7845;53.698;10.078;2024-02-15T03:15:00;101128.13;;;12.35;92.86
15487;BME280;7845;53.698;10.078;2024-02-15T03:17:26;101131.50;;;12.37;93.11
15487;BME280;7845;53.698;10.078;2024-02-15T03:19:52;101130.66;;;12.36;92.67
15487;BME280;7845;53.698;10.078;2024-02-15T03:22:17;101135.91;;;12.36;92.46
15487;BME280;7845;53.698;10.078;2024-02-15T03:24:42;101130.66;;;12.36;92.95
15487;BME280;7845;53.698;10.078;2024-02-15T03:27:08;101129.06;;;12.34;92.92
15487;BME280;7845;53.698;10.078;2024-02-15T03:29:35;101134.31;;;12.34;92.87
15487;BME280;7845;53.698;10.078;2024-02-15T03:32:01;101135.91;;;12.36;92.50
15487;BME280;7845;53.698;10.078;2024-02-15T03:34:26;101139.59;;;12.34;92.55
15487;BME280;7845;53.698;10.078;2024-02-15T03:36:51;101138.53;;;12.36;92.51
15487;BME280;7845;53.698;10.078;2024-02-15T03:39:19;101135.06;;;12.36;93.02
15487;BME280;7845;53.698;10.078;2024-02-15T03:41:44;101142.84;;;12.37;92.53
15487;BME280;7845;53.698;10.078;2024-02-15T03:44:11;101135.69;;;12.39;92.24
15487;BME280;7845;53.698;10.078;2024-02-15T03:46:37;101095.06;;;12.07;92.40
15487;BME280;7845;53.698;10.078;2024-02-15T03:49:02;101147.91;;;12.40;92.42
15487;BME280;7845;53.698;10.078;2024-02-15T03:51:27;101147.69;;;12.43;93.08
15487;BME280;7845;53.698;10.078;2024-02-15T03:53:53;101153.78;;;12.44;92.60
15487;BME280;7845;53.698;10.078;2024-02-15T03:56:18;101158.22;;;12.43;92.64
15487;BME280;7845;53.698;10.078;2024-02-15T03:58:46;101163.34;;;12.45;92.80
15487;BME280;7845;53.698;10.078;2024-02-15T04:01:11;101157.47;;;12.41;92.39
15487;BME280;7845;53.698;10.078;2024-02-15T04:03:38;101154.13;;;12.39;92.77
15487;BME280;7845;53.698;10.078;2024-02-15T04:06:05;101155.91;;;12.39;93.21
15487;BME280;7845;53.698;10.078;2024-02-15T04:08:30;101163.56;;;12.42;93.51
15487;BME280;7845;53.698;10.078;2024-02-15T04:10:55;101154.13;;;12.39;93.27
15487;BME280;7845;53.698;10.078;2024-02-15T04:13:23;101150.63;;;12.39;93.63
15487;BME280;7845;53.698;10.078;2024-02-15T04:15:48;101141.28;;;12.35;92.96
15487;BME280;7845;53.698;10.078;2024-02-15T04:18:15;101147.16;;;12.38;93.26
15487;BME280;7845;53.698;10.078;2024-02-15T04:20:42;101149.56;;;12.41;92.56
15487;BME280;7845;53.698;10.078;2024-02-15T04:23:11;101151.97;;;12.44;93.21
15487;BME280;7845;53.698;10.078;2024-02-15T04:25:36;101155.22;;;12.48;92.95
15487;BME280;7845;53.698;10.078;2024-02-15T04:28:01;101160.63;;;12.46;92.81
15487;BME280;7845;53.698;10.078;2024-02-15T04:30:29;101162.31;;;12.47;92.78
15487;BME280;7845;53.698;10.078;2024-02-15T04:32:55;101122.06;;;12.22;92.46
15487;BME280;7845;53.698;10.078;2024-02-15T04:35:20;101165.66;;;12.49;92.46
15487;BME280;7845;53.698;10.078;2024-02-15T04:37:46;101163.03;;;12.49;92.38
15487;BME280;7845;53.698;10.078;2024-02-15T04:40:12;101123.34;;;12.16;93.08
15487;BME280;7845;53.698;10.078;2024-02-15T04:42:39;101161.56;;;12.45;93.18
15487;BME280;7845;53.698;10.078;2024-02-15T04:45:07;101168.38;;;12.48;92.80
15487;BME280;7845;53.698;10.078;2024-02-15T04:47:38;101169.22;;;12.48;92.82
15487;BME280;7845;53.698;10.078;2024-02-15T04:50:04;101172.72;;;12.49;93.30
15487;BME280;7845;53.698;10.078;2024-02-15T04:52:31;101134.38;;;12.21;93.23
15487;BME280;7845;53.698;10.078;2024-02-15T04:54:56;101178.69;;;12.51;93.05
15487;BME280;7845;53.698;10.078;2024-02-15T04:57:27;101187.44;;;12.51;93.20
15487;BME280;7845;53.698;10.078;2024-02-15T04:59:53;101188.28;;;12.52;93.03
15487;BME280;7845;53.698;10.078;2024-02-15T05:02:19;101191.88;;;12.51;92.80
15487;BME280;7845;53.698;10.078;2024-02-15T05:04:45;101187.56;;;12.50;92.83
15487;BME280;7845;53.698;10.078;2024-02-15T05:07:10;101138.81;;;12.21;92.57
15487;BME280;7845;53.698;10.078;2024-02-15T05:09:36;101185.03;;;12.48;92.34
15487;BME280;7845;53.698;10.078;2024-02-15T05:12:01;101190.31;;;12.48;93.13
15487;BME280;7845;53.698;10.078;2024-02-15T05:14:28;101186.59;;;12.51;93.00
15487;BME280;7845;53.698;10.078;2024-02-15T05:16:53;101185.56;;;12.53;92.72
15487;BME280;7845;53.698;10.078;2024-02-15T05:19:18;101184.72;;;12.53;92.58
15487;BME280;7845;53.698;10.078;2024-02-15T05:21:44;101182.78;;;12.55;92.71
15487;BME280;7845;53.698;10.078;2024-02-15T05:24:15;101179.31;;;12.54;92.26
15487;BME280;7845;53.698;10.078;2024-02-15T05:26:41;101176.69;;;12.54;92.76
15487;BME280;7845;53.698;10.078;2024-02-15T05:29:08;101172.72;;;12.49;92.59
15487;BME280;7845;53.698;10.078;2024-02-15T05:31:34;101180.50;;;12.50;92.66
15487;BME280;7845;53.698;10.078;2024-02-15T05:34:05;101175.34;;;12.49;93.03
15487;BME280;7845;53.698;10.078;2024-02-15T05:36:30;101167.44;;;12.49;93.30
15487;BME280;7845;53.698;10.078;2024-02-15T05:38:56;101169.38;;;12.47;92.98
15487;BME280;7845;53.698;10.078;2024-02-15T05:41:22;101072.59;;;11.90;93.13
15487;BME280;7845;53.698;10.078;2024-02-15T05:43:48;101161.34;;;12.48;92.94
15487;BME280;7845;53.698;10.078;2024-02-15T05:46:14;101169.75;;;12.53;92.56
15487;BME280;7845;53.698;10.078;2024-02-15T05:48:40;101167.13;;;12.53;92.37
15487;BME280;7845;53.698;10.078;2024-02-15T05:51:07;101166.75;;;12.58;92.89
15487;BME280;7845;53.698;10.078;2024-02-15T05:53:33;101175.63;;;12.57;92.89
15487;BME280;7845;53.698;10.078;2024-02-15T05:56:05;101162.09;;;12.50;92.58
15487;BME280;7845;53.698;10.078;2024-02-15T05:58:32;101163.50;;;12.54;92.53
15487;BME280;7845;53.698;10.078;2024-02-15T06:00:58;101117.66;;;12.22;93.21
15487;BME280;7845;53.698;10.078;2024-02-15T06:03:28;101170.38;;;12.57;92.70
15487;BME280;7845;53.698;10.078;2024-02-15T06:05:53;101132.75;;;12.31;92.48
15487;BME280;7845;53.698;10.078;2024-02-15T06:08:25;101179.84;;;12.60;93.12
15487;BME280;7845;53.698;10.078;2024-02-15T06:10:52;101178.03;;;12.60;93.09
15487;BME280;7845;53.698;10.078;2024-02-15T06:13:18;101177.91;;;12.62;92.53
15487;BME280;7845;53.698;10.078;2024-02-15T06:15:43;101178.88;;;12.61;92.36
15487;BME280;7845;53.698;10.078;2024-02-15T06:18:08;101187.50;;;12.63;92.53
15487;BME280;7845;53.698;10.078;2024-02-15T06:20:37;101184.03;;;12.62;92.76
15487;BME280;7845;53.698;10.078;2024-02-15T06:23:04;101181.38;;;12.62;92.33
15487;BME280;7845;53.698;10.078;2024-02-15T06:25:32;101187.84;;;12.58;92.92
15487;BME280;7845;53.698;10.078;2024-02-15T06:27:57;101177.44;;;12.56;92.47
15487;BME280;7845;53.698;10.078;2024-02-15T06:30:27;101180.91;;;12.57;93.05
15487;BME280;7845;53.698;10.078;2024-02-15T06:33:11;101182.56;;;12.58;93.41
15487;BME280;7845;53.698;10.078;2024-02-15T06:35:55;101186.28;;;12.55;93.14
15487;BME280;7845;53.698;10.078;2024-02-15T06:38:39;101189.41;;;12.61;92.32
15487;BME280;7845;53.698;10.078;2024-02-15T06:41:23;101193.63;;;12.63;92.48
15487;BME280;7845;53.698;10.078;2024-02-15T06:43:49;101195.31;;;12.64;92.98
15487;BME280;7845;53.698;10.078;2024-02-15T06:46:14;101190.66;;;12.68;92.61
15487;BME280;7845;53.698;10.078;2024-02-15T06:48:42;101189.91;;;12.66;92.01
15487;BME280;7845;53.698;10.078;2024-02-15T06:51:12;101198.56;;;12.68;92.24
15487;BME280;7845;53.698;10.078;2024-02-15T06:53:39;101190.66;;;12.68;92.60
15487;BME280;7845;53.698;10.078;2024-02-15T06:56:05;101190.44;;;12.71;92.31
15487;BME280;7845;53.698;10.078;2024-02-15T06:58:30;101184.31;;;12.70;91.70
15487;BME280;7845;53.698;10.078;2024-02-15T07:00:56;101190.44;;;12.71;91.53
15487;BME280;7845;53.698;10.078;2024-02-15T07:03:21;101196.53;;;12.71;92.51
15487;BME280;7845;53.698;10.078;2024-02-15T07:05:48;101133.00;;;12.28;91.90
15487;BME280;7845;53.698;10.078;2024-02-15T07:08:13;101197.25;;;12.73;91.91
15487;BME280;7845;53.698;10.078;2024-02-15T07:10:39;101190.19;;;12.74;92.45
15487;BME280;7845;53.698;10.078;2024-02-15T07:13:04;101195.56;;;12.72;92.25
15487;BME280;7845;53.698;10.078;2024-02-15T07:15:31;101191.03;;;12.74;91.76
15487;BME280;7845;53.698;10.078;2024-02-15T07:17:58;101196.19;;;12.76;92.53
15487;BME280;7845;53.698;10.078;2024-02-15T07:20:24;101184.94;;;12.74;92.70
15487;BME280;7845;53.698;10.078;2024-02-15T07:22:49;101196.53;;;12.71;92.02
15487;BME280;7845;53.698;10.078;2024-02-15T07:25:14;101190.53;;;12.69;91.91
15487;BME280;7845;53.698;10.078;2024-02-15T07:27:40;101192.53;;;12.66;92.39
15487;BME280;7845;53.698;10.078;2024-02-15T07:30:06;101199.50;;;12.67;92.15
15487;BME280;7845;53.698;10.078;2024-02-15T07:32:34;101202.75;;;12.70;92.95
15487;BME280;7845;53.698;10.078;2024-02-15T07:35:01;101201.59;;;12.74;92.34
15487;BME280;7845;53.698;10.078;2024-02-15T07:37:26;101205.06;;;12.75;92.96
15487;BME280;7845;53.698;10.078;2024-02-15T07:39:52;101206.72;;;12.76;92.03
15487;BME280;7845;53.698;10.078;2024-02-15T07:42:18;101204.09;;;12.76;93.00
15487;BME280;7845;53.698;10.078;2024-02-15T07:44:43;101211.34;;;12.85;92.05
15487;BME280;7845;53.698;10.078;2024-02-15T07:47:08;101213.50;;;12.91;92.04
15487;BME280;7845;53.698;10.078;2024-02-15T07:49:38;101174.84;;;12.68;91.89
15487;BME280;7845;53.698;10.078;2024-02-15T07:52:03;101207.16;;;12.93;91.74
15487;BME280;7845;53.698;10.078;2024-02-15T07:54:30;101211.16;;;12.99;91.92
15487;BME280;7845;53.698;10.078;2024-02-15T07:56:56;101207.28;;;12.92;91.98
15487;BME280;7845;53.698;10.078;2024-02-15T07:59:23;101217.47;;;12.96;91.22
15487;BME280;7845;53.698;10.078;2024-02-15T08:01:48;101216.28;;;13.00;91.13
15487;BME280;7845;53.698;10.078;2024-02-15T08:04:15;101208.38;;;13.00;91.49
15487;BME280;7845;53.698;10.078;2024-02-15T08:06:42;101202.16;;;13.01;91.33
15487;BME280;7845;53.698;10.078;2024-02-15T08:09:08;101209.53;;;13.09;91.03
15487;BME280;7845;53.698;10.078;2024-02-15T08:11:38;101214.34;;;13.15;91.00
15487;BME280;7845;53.698;10.078;2024-02-15T08:14:05;101210.75;;;13.16;91.16
15487;BME280;7845;53.698;10.078;2024-02-15T08:16:33;101220.38;;;13.17;91.04
15487;BME280;7845;53.698;10.078;2024-02-15T08:18:59;101216.75;;;13.18;90.60
15487;BME280;7845;53.698;10.078;2024-02-15T08:21:33;101216.31;;;13.24;90.84
15487;BME280;7845;53.698;10.078;2024-02-15T08:24:01;101170.03;;;12.96;90.48
15487;BME280;7845;53.698;10.078;2024-02-15T08:26:35;101211.75;;;13.26;90.23
15487;BME280;7845;53.698;10.078;2024-02-15T08:29:01;101166.97;;;13.02;90.59
15487;BME280;7845;53.698;10.078;2024-02-15T08:31:28;101212.47;;;13.28;90.19
15487;BME280;7845;53.698;10.078;2024-02-15T08:33:53;101214.91;;;13.31;89.98
15487;BME280;7845;53.698;10.078;2024-02-15T08:36:18;101215.00;;;13.30;90.11
15487;BME280;7845;53.698;10.078;2024-02-15T08:38:44;101219.56;;;13.28;90.29
15487;BME280;7845;53.698;10.078;2024-02-15T08:41:12;101211.28;;;13.32;90.67
15487;BME280;7845;53.698;10.078;2024-02-15T08:43:37;101213.69;;;13.35;90.12
15487;BME280;7845;53.698;10.078;2024-02-15T08:46:05;101206.75;;;13.34;90.31
15487;BME280;7845;53.698;10.078;2024-02-15T08:48:31;101207.22;;;13.39;90.51
15487;BME280;7845;53.698;10.078;2024-02-15T08:50:57;101212.88;;;13.46;90.14
15487;BME280;7845;53.698;10.078;2024-02-15T08:53:23;101208.09;;;13.51;90.20
15487;BME280;7845;53.698;10.078;2024-02-15T08:55:49;101204.13;;;13.56;89.70
15487;BME280;7845;53.698;10.078;2024-02-15T08:58:15;101198.75;;;13.58;90.05
15487;BME280;7845;53.698;10.078;2024-02-15T09:00:40;101203.53;;;13.64;89.98
15487;BME280;7845;53.698;10.078;2024-02-15T09:03:10;101201.50;;;13.68;89.90
15487;BME280;7845;53.698;10.078;2024-02-15T09:05:35;101202.84;;;13.73;89.45
15487;BME280;7845;53.698;10.078;2024-02-15T09:08:00;101201.75;;;13.76;89.36
15487;BME280;7845;53.698;10.078;2024-02-15T09:10:26;101207.66;;;13.79;89.11
15487;BME280;7845;53.698;10.078;2024-02-15T09:12:52;101204.28;;;13.88;89.11
15487;BME280;7845;53.698;10.078;2024-02-15T09:15:17;101204.63;;;13.95;88.86
15487;BME280;7845;53.698;10.078;2024-02-15T09:17:43;101204.03;;;14.02;89.22
15487;BME280;7845;53.698;10.078;2024-02-15T09:20:12;101206.56;;;14.15;88.77
15487;BME280;7845;53.698;10.078;2024-02-15T09:22:47;101204.63;;;14.17;88.01
15487;BME280;7845;53.698;10.078;2024-02-15T09:25:13;101207.75;;;14.22;88.30
15487;BME280;7845;53.698;10.078;2024-02-15T09:27:39;101205.81;;;14.24;87.96
15487;BME280;7845;53.698;10.078;2024-02-15T09:30:05;101208.72;;;14.21;87.80
15487;BME280;7845;53.698;10.078;2024-02-15T09:32:41;101209.56;;;14.22;87.83
15487;BME280;7845;53.698;10.078;2024-02-15T09:35:07;101201.41;;;14.14;88.09
15487;BME280;7845;53.698;10.078;2024-02-15T09:37:36;101202.25;;;14.14;88.00
15487;BME280;7845;53.698;10.078;2024-02-15T09:40:07;101201.88;;;14.19;88.40
15487;BME280;7845;53.698;10.078;2024-02-15T09:42:33;101203.78;;;14.28;88.53
15487;BME280;7845;53.698;10.078;2024-02-15T09:45:02;101207.00;;;14.31;88.31
15487;BME280;7845;53.698;10.078;2024-02-15T09:47:34;101196.69;;;14.28;87.95
15487;BME280;7845;53.698;10.078;2024-02-15T09:50:00;101204.22;;;14.33;88.38
15487;BME280;7845;53.698;10.078;2024-02-15T09:52:27;101202.94;;;14.38;88.03
15487;BME280;7845;53.698;10.078;2024-02-15T09:54:57;101194.28;;;14.36;88.29
15487;BME280;7845;53.698;10.078;2024-02-15T09:57:23;101205.09;;;14.44;87.82
15487;BME280;7845;53.698;10.078;2024-02-15T09:59:49;101207.47;;;14.47;87.89
15487;BME280;7845;53.698;10.078;2024-02-15T10:02:14;101203.28;;;14.45;87.74
15487;BME280;7845;53.698;10.078;2024-02-15T10:04:40;101204.97;;;14.46;87.61
15487;BME280;7845;53.698;10.078;2024-02-15T10:07:07;101196.81;;;14.38;87.92
15487;BME280;7845;53.698;10.078;2024-02-15T10:09:34;101205.31;;;14.30;87.76
15487;BME280;7845;53.698;10.078;2024-02-15T10:12:02;101206.28;;;14.29;87.98
15487;BME280;7845;53.698;10.078;2024-02-15T10:14:29;101205.22;;;14.32;88.21
15487;BME280;7845;53.698;10.078;2024-02-15T10:16:55;101204.16;;;14.34;88.35
15487;BME280;7845;53.698;10.078;2024-02-15T10:19:22;101208.59;;;14.34;88.35
15487;BME280;7845;53.698;10.078;2024-02-15T10:21:54;101200.78;;;14.32;88.21
15487;BME280;7845;53.698;10.078;2024-02-15T10:24:23;101198.25;;;14.31;88.46
15487;BME280;7845;53.698;10.078;2024-02-15T10:26:50;101159.06;;;14.04;88.61
15487;BME280;7845;53.698;10.078;2024-02-15T10:29:16;101205.00;;;14.35;88.34
15487;BME280;7845;53.698;10.078;2024-02-15T10:31:53;101200.41;;;14.37;88.22
15487;BME280;7845;53.698;10.078;2024-02-15T10:34:20;101175.47;;;14.19;88.42
15487;BME280;7845;53.698;10.078;2024-02-15T10:36:45;101197.16;;;14.33;88.68
15487;BME280;7845;53.698;10.078;2024-02-15T10:39:15;101198.03;;;14.34;88.39
15487;BME280;7845;53.698;10.078;2024-02-15T10:41:50;101200.66;;;14.34;88.67
15487;BME280;7845;53.698;10.078;2024-02-15T10:44:19;101186.50;;;14.35;88.62
15487;BME280;7845;53.698;10.078;2024-02-15T10:46:49;101192.03;;;14.43;88.90
15487;BME280;7845;53.698;10.078;2024-02-15T10:49:18;101195.84;;;14.50;88.47
15487;BME280;7845;53.698;10.078;2024-02-15T10:51:50;101151.47;;;14.22;88.27
15487;BME280;7845;53.698;10.078;2024-02-15T10:54:22;101188.75;;;14.50;88.38
15487;BME280;7845;53.698;10.078;2024-02-15T10:56:53;101193.91;;;14.52;88.69
15487;BME280;7845;53.698;10.078;2024-02-15T10:59:24;101189.56;;;14.62;88.60
15487;BME280;7845;53.698;10.078;2024-02-15T11:01:59;101187.84;;;14.72;88.31
15487;BME280;7845;53.698;10.078;2024-02-15T11:04:25;101140.47;;;14.48;87.66
15487;BME280;7845;53.698;10.078;2024-02-15T11:06:58;101186.50;;;14.78;87.79
15487;BME280;7845;53.698;10.078;2024-02-15T11:09:24;101186.59;;;14.87;87.60
15487;BME280;7845;53.698;10.078;2024-02-15T11:11:54;101179.34;;;14.89;87.06
15487;BME280;7845;53.698;10.078;2024-02-15T11:14:24;101182.00;;;14.89;87.18
15487;BME280;7845;53.698;10.078;2024-02-15T11:16:50;101180.81;;;14.82;87.39
15487;BME280;7845;53.698;10.078;2024-02-15T11:19:40;101179.88;;;14.83;87.64
15487;BME280;7845;53.698;10.078;2024-02-15T11:22:09;101178.91;;;14.84;87.40
15487;BME280;7845;53.698;10.078;2024-02-15T11:24:36;101170.84;;;14.86;87.20
15487;BME280;7845;53.698;10.078;2024-02-15T11:27:03;101129.03;;;14.59;87.17
15487;BME280;7845;53.698;10.078;2024-02-15T11:32:45;101170.25;;;14.82;87.36
15487;BME280;7845;53.698;10.078;2024-02-15T11:35:25;101172.06;;;14.82;87.33
15487;BME280;7845;53.698;10.078;2024-02-15T11:37:57;101091.28;;;14.36;87.54
15487;BME280;7845;53.698;10.078;2024-02-15T11:40:28;101162.78;;;14.87;87.66
15487;BME280;7845;53.698;10.078;2024-02-15T11:43:00;101162.22;;;14.84;87.47
15487;BME280;7845;53.698;10.078;2024-02-15T11:45:26;101164.25;;;14.80;87.46
15487;BME280;7845;53.698;10.078;2024-02-15T11:47:57;101157.56;;;14.76;87.61
15487;BME280;7845;53.698;10.078;2024-02-15T11:50:33;101162.38;;;14.71;87.77
15487;BME280;7845;53.698;10.078;2024-02-15T11:53:05;101153.63;;;14.71;87.73
15487;BME280;7845;53.698;10.078;2024-02-15T11:55:31;101154.94;;;14.65;87.73
15487;BME280;7845;53.698;10.078;2024-02-15T11:57:58;101159.53;;;14.63;87.86
15487;BME280;7845;53.698;10.078;2024-02-15T12:00:41;101112.31;;;14.38;87.99
15487;BME280;7845;53.698;10.078;2024-02-15T12:03:26;101103.53;;;14.26;88.01
15487;BME280;7845;53.698;10.078;2024-02-15T12:06:10;101157.75;;;14.52;88.26
15487;BME280;7845;53.698;10.078;2024-02-15T12:08:54;101150.69;;;14.53;88.58
15487;BME280;7845;53.698;10.078;2024-02-15T12:11:39;101147.91;;;14.54;88.64
15487;BME280;7845;53.698;10.078;2024-02-15T12:14:24;101146.09;;;14.55;88.70
15487;BME280;7845;53.698;10.078;2024-02-15T12:17:09;101129.22;;;14.46;88.82
15487;BME280;7845;53.698;10.078;2024-02-15T12:19:54;101140.56;;;14.58;88.89
15487;BME280;7845;53.698;10.078;2024-02-15T12:22:26;101140.72;;;14.57;88.60
15487;BME280;7845;53.698;10.078;2024-02-15T12:24:53;101089.38;;;14.27;88.67
15487;BME280;7845;53.698;10.078;2024-02-15T12:27:19;101133.72;;;14.55;88.79
15487;BME280;7845;53.698;10.078;2024-02-15T12:29:46;101125.91;;;14.54;88.63
15487;BME280;7845;53.698;10.078;2024-02-15T12:32:24;101122.78;;;14.60;88.84
15487;BME280;7845;53.698;10.078;2024-02-15T12:34:51;101126.88;;;14.64;88.97
15487;BME280;7845;53.698;10.078;2024-02-15T12:37:21;101119.38;;;14.69;88.77
15487;BME280;7845;53.698;10.078;2024-02-15T12:39:47;101128.16;;;14.70;88.52
15487;BME280;7845;53.698;10.078;2024-02-15T12:42:14;101121.31;;;14.67;88.29
15487;BME280;7845;53.698;10.078;2024-02-15T12:44:48;101119.91;;;14.63;88.32
15487;BME280;7845;53.698;10.078;2024-02-15T12:47:20;101122.06;;;14.58;88.25
15487;BME280;7845;53.698;10.078;2024-02-15T12:49:47;101106.97;;;14.49;88.38
15487;BME280;7845;53.698;10.078;2024-02-15T12:52:37;101125.34;;;14.50;88.71
15487;BME280;7845;53.698;10.078;2024-02-15T12:55:11;101115.88;;;14.48;88.85
15487;BME280;7845;53.698;10.078;2024-02-15T12:57:36;101074.28;;;14.18;88.89